El Granada, CA (94018)

1:24 PM PDT on July 06, 2015 (GMT -0700)
El Granada Highlands | | Change Station
CLOSE
Current Station
Personal Weather Station
Location: Half Moon Bay, CA
Elevation: 551 ft
Nearby Weather Stations

Elev 551 ft 37.51 °N, 122.46 °W | Updated 5 minutes ago

Haze
Haze
65.7 °F
Feels Like 65.7 °F
N
3.2
Wind Variable Wind from South

Today
High -- | Low -- °F
--% Chance of Precip.
Yesterday
High -- | Low -- °F
Precip. -- in
5:54 AM 8:34 PM
Waning Gibbous, 72% visible
Pressure 30.11 in
Visibility 5.0 miles
Clouds Clear
Dew Point 56 °F
Humidity 72%
Rainfall 0.02 in
Snow Depth Not available.
UV 12 out of 12
Pollen 3.20 out of 12
Air Quality Not available.
Flu Activity Not available.
METAR KHAF 062015Z AUTO 28006KT 5SM HZ CLR 18/14 A3011 RMK AO2

More Conditions Fewer Conditions

Pressure 30.11 in
Visibility 5.0 miles
Clouds Clear
Dew Point 56 °F
Humidity 72%
Rainfall 0.02 in
Snow Depth Not available.
UV 12 out of 12
Pollen 3.20 out of 12
Air Quality Not available.
Flu Activity Not available.
METAR KHAF 062015Z AUTO 28006KT 5SM HZ CLR 18/14 A3011 RMK AO2

More Conditions Fewer Conditions

10-Day Weather Forecast

×

Almanac

Astronomy

Jul. 06, 2015 Rise Set
Actual Time
Civil Twilight
Nautical Twilight
Astronomical Twilight
Moon
Length of Visible Light
Length of Day
Tomorrow will be .
, % of the Moon is Illuminated

Today's Extremes

State Highs State Lows

Community

WunderPhotos

Upload Photos

1,835,636 photos uploaded!

WunderBlogs® & News

Nearby

Air Quality

  Air Quality AQ Index Pollutant
Not available.

Snow Depth

Station Depth Elevation

Earthquake Activity

City Distance Mag. Time & Date
Minimum magnitude displayed is 2.5.

Coastal Water Temperatures

Place Temperature

Stations

Nearby Weather Stations

Station Location Temp. Windchill Dew Point Humidity Wind Precip. Elev Updated Type